Time;durP1;ratioP1;P1;durP2;ratioP2;P2;SDS_P1;SDS_P2;PMS_P1;PMS_P2;Temp;Humidity;BMP_temperature;BMP_pressure;BME280_temperature;BME280_humidity;BME280_pressure;Samples;Min_cycle;Max_cycle;Signal;HPM_P1;HPM_P2
2021/03/30 00:00:19;;;;;;;61.63;29.10;;;;;;;5.67;69.16;101648.86;1727728;81;21169;-71
2021/03/30 00:02:46;;;;;;;67.65;30.17;;;;;;;5.65;69.37;101646.66;1725002;82;21191;-70
2021/03/30 00:07:55;;;;;;;69.37;30.60;;;;;;;5.66;68.82;101649.30;1733827;81;21732;-70
2021/03/30 00:10:29;;;;;;;61.23;30.32;;;;;;;5.66;68.41;101650.61;1717854;83;21198;-71
2021/03/30 00:12:58;;;;;;;56.18;29.27;;;;;;;5.68;68.24;101653.20;1775779;80;21135;-71
2021/03/30 00:15:27;;;;;;;56.33;27.02;;;;;;;5.72;68.03;101654.13;1776139;80;21139;-70
2021/03/30 00:17:55;;;;;;;47.00;26.40;;;;;;;5.71;67.64;101650.64;1775893;80;21186;-71
2021/03/30 00:20:23;;;;;;;56.33;27.65;;;;;;;5.74;67.68;101655.01;1769178;79;21329;-75
2021/03/30 00:22:51;;;;;;;55.50;27.20;;;;;;;5.75;67.91;101651.52;1716158;83;21338;-74
2021/03/30 00:25:19;;;;;;;56.98;28.35;;;;;;;5.75;67.73;101644.98;1716267;83;22175;-74
2021/03/30 00:27:47;;;;;;;53.85;27.90;;;;;;;5.76;67.40;101641.52;1716064;83;21150;-76
2021/03/30 00:30:17;;;;;;;58.38;28.35;;;;;;;5.76;67.60;101641.52;1716145;82;21685;-76
2021/03/30 00:32:45;;;;;;;51.02;27.48;;;;;;;5.75;67.97;101645.88;1740145;82;21233;-76
2021/03/30 00:35:13;;;;;;;54.67;26.70;;;;;;;5.75;67.25;101644.58;1732808;77;21179;-74
2021/03/30 00:37:42;;;;;;;48.40;23.90;;;;;;;5.77;66.94;101648.48;1703747;83;21193;-71
2021/03/30 00:40:12;;;;;;;48.70;24.18;;;;;;;5.77;66.81;101647.18;1685473;85;21197;-73
2021/03/30 00:42:40;;;;;;;49.42;25.20;;;;;;;5.78;66.44;101651.13;1682156;85;21436;-72
2021/03/30 00:45:10;;;;;;;51.33;25.82;;;;;;;5.78;66.29;101647.20;1684125;85;21250;-71
2021/03/30 00:47:46;;;;;;;44.40;25.30;;;;;;;5.80;66.16;101656.38;1685458;85;21218;-72
2021/03/30 00:50:22;;;;;;;50.98;25.23;;;;;;;5.80;66.29;101655.94;1685853;85;21225;-73
2021/03/30 00:52:52;;;;;;;50.45;22.15;;;;;;;5.80;66.34;101649.84;1759793;80;21641;-74
2021/03/30 00:55:38;;;;;;;46.80;24.37;;;;;;;5.85;66.66;101648.13;1882154;76;26910;-73
2021/03/30 00:58:08;;;;;;;54.95;25.92;;;;;;;5.81;66.70;101651.57;1823412;77;21178;-71
2021/03/30 01:00:36;;;;;;;42.98;23.57;;;;;;;5.81;66.41;101647.66;1823337;78;21326;-73
2021/03/30 01:03:06;;;;;;;45.78;23.50;;;;;;;5.79;66.44;101650.69;1823068;78;21162;-73
2021/03/30 01:05:45;;;;;;;43.83;24.30;;;;;;;5.79;66.01;101648.06;1823490;78;21190;-72
2021/03/30 01:08:39;;;;;;;47.88;24.57;;;;;;;5.77;65.76;101649.80;1764808;79;21165;-72
2021/03/30 01:11:55;;;;;;;47.27;22.00;;;;;;;5.74;65.91;101651.95;1789792;79;21508;-71
2021/03/30 01:14:46;;;;;;;43.08;21.85;;;;;;;5.77;66.25;101655.02;1794434;79;21485;-70
2021/03/30 01:17:38;;;;;;;48.02;23.77;;;;;;;5.78;66.62;101650.26;1794330;79;21176;-74
2021/03/30 01:20:53;;;;;;;44.05;21.23;;;;;;;5.77;65.64;101645.88;1794312;79;21159;-70
2021/03/30 01:24:01;;;;;;;49.85;24.65;;;;;;;5.77;66.47;101645.88;1733351;82;21130;-74
2021/03/30 01:26:49;;;;;;;43.08;24.00;;;;;;;5.79;65.87;101651.55;1786306;80;21162;-74
2021/03/30 01:29:42;;;;;;;53.80;25.90;;;;;;;5.80;66.72;101649.84;1785019;80;21153;-75
2021/03/30 01:32:19;;;;;;;46.63;23.83;;;;;;;5.79;65.05;101650.69;1781385;80;21172;-73
2021/03/30 01:34:47;;;;;;;45.78;24.15;;;;;;;5.78;64.36;101658.09;1781634;80;21163;-73
2021/03/30 01:37:17;;;;;;;46.98;23.10;;;;;;;5.77;64.55;101661.12;1736975;77;21217;-71
2021/03/30 01:39:51;;;;;;;44.40;25.08;;;;;;;5.76;64.60;101660.69;1730772;81;21177;-72
2021/03/30 01:42:22;;;;;;;49.50;26.73;;;;;;;5.77;65.09;101661.55;1679942;84;21458;-71
2021/03/30 01:44:51;;;;;;;51.70;26.75;;;;;;;5.76;64.54;101658.52;1717087;81;21240;-76
2021/03/30 01:47:19;;;;;;;50.50;26.40;;;;;;;5.76;66.01;101661.13;1731292;82;21267;-74
2021/03/30 01:49:48;;;;;;;43.13;23.40;;;;;;;5.76;65.59;101661.13;1706748;84;21172;-74
2021/03/30 01:52:18;;;;;;;41.48;21.27;;;;;;;5.76;65.24;101661.13;1754860;80;21225;-71
2021/03/30 01:54:48;;;;;;;47.95;25.70;;;;;;;5.80;65.81;101670.75;1783682;79;21381;-70
2021/03/30 01:57:31;;;;;;;51.58;24.25;;;;;;;5.79;63.98;101668.98;1744716;81;21649;-71
2021/03/30 01:59:59;;;;;;;52.62;25.92;;;;;;;5.77;62.97;101669.40;1731631;82;21197;-71
2021/03/30 02:02:26;;;;;;;50.80;25.82;;;;;;;5.78;64.01;101667.25;1731924;82;21202;-71
2021/03/30 02:04:55;;;;;;;51.85;25.08;;;;;;;5.77;63.10;101666.78;1749944;82;21192;-72
2021/03/30 02:07:24;;;;;;;54.03;25.62;;;;;;;5.78;63.40;101667.25;1709952;78;21358;-73
2021/03/30 02:09:56;;;;;;;54.83;27.48;;;;;;;5.79;63.50;101673.77;1689884;84;21690;-77
2021/03/30 02:12:30;;;;;;;48.00;24.72;;;;;;;5.78;63.10;101672.48;1690441;84;21216;-72
2021/03/30 02:14:53;;;;;;;42.00;22.77;;;;;;;5.78;62.79;101670.73;1690666;83;21209;-72
2021/03/30 02:18:08;;;;;;;31.93;17.35;;;;;;;5.79;63.90;101672.91;1691354;84;21157;-72
2021/03/30 02:20:42;;;;;;;45.65;23.57;;;;;;;5.80;64.08;101665.52;1691452;84;21387;-73
2021/03/30 02:23:26;;;;;;;48.42;22.75;;;;;;;5.80;62.03;101676.84;1691188;84;21763;-73
2021/03/30 02:25:58;;;;;;;43.50;22.67;;;;;;;5.81;61.92;101669.44;1691340;83;21168;-72
2021/03/30 02:28:43;;;;;;;51.68;24.98;;;;;;;5.82;61.92;101669.89;1691640;84;21137;-73
2021/03/30 02:31:05;;;;;;;49.10;24.05;;;;;;;5.83;61.47;101665.53;1690378;83;21660;-73
2021/03/30 02:33:34;;;;;;;46.77;24.98;;;;;;;5.83;61.45;101662.48;1689878;84;22315;-72
2021/03/30 02:36:02;;;;;;;41.08;21.42;;;;;;;5.82;61.11;101658.53;1690070;84;21141;-71
2021/03/30 02:38:30;;;;;;;42.58;21.93;;;;;;;5.82;63.45;101663.77;1691122;83;21204;-71
2021/03/30 02:40:59;;;;;;;39.78;20.75;;;;;;;5.82;62.78;101665.07;1690983;84;21192;-72
2021/03/30 02:43:27;;;;;;;44.65;24.63;;;;;;;5.82;63.29;101665.07;1691094;83;21180;-72
2021/03/30 02:45:57;;;;;;;39.73;22.05;;;;;;;5.83;62.47;101666.84;1642542;86;21417;-71
2021/03/30 02:48:25;;;;;;;45.85;23.62;;;;;;;5.81;60.87;101668.56;1663169;86;21652;-69
2021/03/30 02:50:55;;;;;;;47.60;24.98;;;;;;;5.81;61.06;101668.56;1663363;86;21200;-69
2021/03/30 02:53:23;;;;;;;44.48;24.07;;;;;;;5.80;59.96;101666.39;1663169;84;21310;-69
2021/03/30 02:55:51;;;;;;;48.23;23.90;;;;;;;5.77;59.20;101674.19;1663072;86;21204;-71
2021/03/30 02:58:21;;;;;;;52.65;25.37;;;;;;;5.77;59.49;101668.96;1670829;84;21227;-70
2021/03/30 03:00:50;;;;;;;40.63;23.00;;;;;;;5.76;59.52;101669.84;1689633;83;21204;-68
2021/03/30 03:03:18;;;;;;;40.80;22.58;;;;;;;5.75;59.12;101670.72;1689306;84;21625;-68
2021/03/30 03:05:47;;;;;;;46.88;22.95;;;;;;;5.74;59.06;101670.26;1689650;84;21291;-70
2021/03/30 03:08:16;;;;;;;48.15;23.70;;;;;;;5.76;59.15;101668.97;1702002;84;21242;-69
2021/03/30 03:10:45;;;;;;;49.65;22.52;;;;;;;5.76;59.39;101668.97;1705585;84;21779;-70
2021/03/30 03:13:15;;;;;;;44.88;22.13;;;;;;;5.77;60.33;101670.70;1705553;84;21607;-69
2021/03/30 03:15:44;;;;;;;34.35;18.57;;;;;;;5.78;59.95;101672.48;1705836;84;21208;-69
2021/03/30 03:18:12;;;;;;;43.25;22.07;;;;;;;5.77;60.21;101669.40;1705626;84;21188;-70
2021/03/30 03:20:41;;;;;;;45.08;22.55;;;;;;;5.77;58.26;101675.94;1709492;80;21231;-72
2021/03/30 03:23:09;;;;;;;47.13;23.20;;;;;;;5.75;58.01;101669.81;1729995;82;21360;-73
2021/03/30 03:25:38;;;;;;;47.70;23.67;;;;;;;5.74;59.83;101673.31;1696648;83;21231;-72
2021/03/30 03:28:06;;;;;;;50.23;23.65;;;;;;;5.74;58.61;101673.31;1711990;82;21207;-75
2021/03/30 03:30:35;;;;;;;40.20;21.20;;;;;;;5.73;58.93;101678.08;1684444;84;21675;-73
2021/03/30 03:33:09;;;;;;;42.88;22.90;;;;;;;5.72;57.96;101672.42;1666206;86;21190;-73
2021/03/30 03:35:39;;;;;;;42.58;22.77;;;;;;;5.73;58.12;101674.16;1723858;79;22353;-74
2021/03/30 03:38:12;;;;;;;50.83;23.05;;;;;;;5.70;57.43;101680.23;1779004;79;21621;-73
2021/03/30 03:40:38;;;;;;;43.05;21.95;;;;;;;5.68;57.10;101677.63;1792549;80;21582;-74
2021/03/30 03:43:06;;;;;;;42.38;20.95;;;;;;;5.69;58.04;101683.73;1792300;78;21229;-75
2021/03/30 03:45:36;;;;;;;41.30;20.43;;;;;;;5.65;57.87;101682.81;1792547;79;21260;-73
2021/03/30 03:48:04;;;;;;;39.88;20.27;;;;;;;5.64;58.34;101684.13;1793662;79;22219;-72
2021/03/30 03:50:32;;;;;;;39.88;21.40;;;;;;;5.64;58.91;101681.08;1769773;76;21241;-75
2021/03/30 03:53:00;;;;;;;40.40;20.65;;;;;;;5.64;57.89;101686.30;1766591;80;21213;-74
2021/03/30 03:55:29;;;;;;;46.50;22.15;;;;;;;5.64;57.88;101688.92;1748235;80;21809;-73
2021/03/30 03:58:02;;;;;;;42.35;20.43;;;;;;;5.64;58.42;101692.84;1778910;79;21205;-74
2021/03/30 04:00:31;;;;;;;43.20;21.82;;;;;;;5.63;57.48;101689.77;1772002;80;21217;-75
2021/03/30 04:03:05;;;;;;;39.67;19.98;;;;;;;5.63;56.90;101694.99;1771831;80;21243;-76
2021/03/30 04:05:38;;;;;;;45.95;20.92;;;;;;;5.63;58.68;101698.91;1741675;78;21186;-75
2021/03/30 04:08:12;;;;;;;42.35;21.62;;;;;;;5.62;56.49;101698.48;1713184;83;21191;-75
2021/03/30 04:10:44;;;;;;;35.48;17.87;;;;;;;5.62;57.53;101701.09;1713420;83;21182;-74
2021/03/30 04:13:12;;;;;;;38.10;20.45;;;;;;;5.60;56.75;101700.20;1713216;82;21343;-70
2021/03/30 04:15:40;;;;;;;41.02;19.32;;;;;;;5.61;57.03;101701.08;1737886;81;21187;-69
2021/03/30 04:18:10;;;;;;;39.58;19.52;;;;;;;5.62;58.04;101705.02;1713993;82;21171;-70
2021/03/30 04:20:38;;;;;;;36.95;19.25;;;;;;;5.60;57.55;101700.20;1761231;78;21122;-72
2021/03/30 04:23:06;;;;;;;42.83;19.92;;;;;;;5.60;56.46;101708.48;1780356;79;21126;-74
2021/03/30 04:25:35;;;;;;;41.05;19.92;;;;;;;5.58;57.23;101709.77;1772082;80;21388;-73
2021/03/30 04:28:03;;;;;;;35.00;17.50;;;;;;;5.58;57.25;101711.07;1772961;79;21138;-76
2021/03/30 04:30:30;;;;;;;35.30;17.60;;;;;;;5.58;57.76;101707.16;1758498;80;21582;-76
2021/03/30 04:32:58;;;;;;;35.05;18.65;;;;;;;5.59;58.28;101710.23;1772969;80;21621;-78
2021/03/30 04:35:26;;;;;;;44.53;18.67;;;;;;;5.62;60.63;101715.91;1768733;78;21220;-72
2021/03/30 04:37:54;;;;;;;36.90;15.88;;;;;;;5.65;61.55;101718.10;1748764;82;22259;-73
2021/03/30 04:40:23;;;;;;;44.65;18.07;;;;;;;5.68;57.31;101721.17;1748433;82;21123;-72
2021/03/30 04:42:51;;;;;;;38.83;18.90;;;;;;;5.70;57.57;101725.11;1748351;81;21110;-72
2021/03/30 04:45:19;;;;;;;35.10;15.85;;;;;;;5.70;56.54;101720.75;1748704;82;21063;-72
2021/03/30 04:47:47;;;;;;;32.03;16.05;;;;;;;5.74;57.58;101720.36;1749964;82;21063;-72
2021/03/30 04:50:15;;;;;;;38.05;16.85;;;;;;;5.76;57.10;101726.48;1752748;79;21356;-71
2021/03/30 04:52:45;;;;;;;37.95;18.00;;;;;;;5.79;57.54;101726.06;1753000;80;21165;-72
2021/03/30 04:55:14;;;;;;;37.00;17.37;;;;;;;5.77;55.54;101718.63;1753704;80;21161;-71
2021/03/30 04:57:42;;;;;;;40.98;18.65;;;;;;;5.80;55.05;101728.27;1751214;80;21570;-70
2021/03/30 05:00:11;;;;;;;34.33;17.77;;;;;;;5.81;55.24;101723.03;1781577;79;21094;-70
2021/03/30 05:02:40;;;;;;;30.60;15.83;;;;;;;5.83;54.76;101723.05;1772768;79;21199;-72
2021/03/30 05:05:09;;;;;;;31.65;16.80;;;;;;;5.82;54.28;101729.13;1748620;77;21254;-79
2021/03/30 05:07:37;;;;;;;37.13;16.95;;;;;;;5.82;54.68;101731.74;1721885;82;21576;-78
2021/03/30 05:10:07;;;;;;;40.50;17.15;;;;;;;5.81;54.97;101726.08;1732381;82;21090;-79
2021/03/30 05:12:34;;;;;;;29.40;16.10;;;;;;;5.83;57.58;101725.66;1732609;82;21104;-81
2021/03/30 05:15:04;;;;;;;35.92;17.37;;;;;;;5.87;57.46;101732.68;1732454;82;21521;-80
2021/03/30 05:17:34;;;;;;;35.98;16.48;;;;;;;5.95;55.72;101731.02;1732653;82;21099;-80
2021/03/30 05:20:06;;;;;;;33.42;16.82;;;;;;;5.95;55.72;101731.02;1735554;78;21056;-73
2021/03/30 05:22:35;;;;;;;33.18;15.80;;;;;;;5.97;54.56;101738.44;1750448;82;21109;-72
2021/03/30 05:25:07;;;;;;;31.68;16.40;;;;;;;5.99;54.43;101740.64;1745589;82;21110;-72
2021/03/30 05:27:36;;;;;;;33.98;16.07;;;;;;;5.98;53.59;101736.70;1779098;78;21353;-72
2021/03/30 05:30:06;;;;;;;30.88;16.50;;;;;;;5.97;54.63;101739.75;1784629;79;21409;-73
2021/03/30 05:32:34;;;;;;;37.23;16.00;;;;;;;5.99;54.81;101738.03;1768066;81;21120;-73
2021/03/30 05:35:06;;;;;;;35.90;16.35;;;;;;;5.98;54.50;101737.59;1807105;78;21126;-76
2021/03/30 05:37:35;;;;;;;34.15;14.68;;;;;;;5.96;54.67;101738.02;1680736;83;21134;-77
2021/03/30 05:40:10;;;;;;;35.58;14.55;;;;;;;5.95;55.21;101736.69;1677954;85;21507;-74
2021/03/30 05:42:40;;;;;;;31.85;14.33;;;;;;;5.97;55.69;101741.06;1714764;82;21136;-77
2021/03/30 05:45:09;;;;;;;28.50;15.78;;;;;;;5.99;56.78;101741.95;1731566;82;21589;-77
2021/03/30 05:47:38;;;;;;;34.45;15.63;;;;;;;6.01;56.19;101743.28;1706349;84;21165;-77
2021/03/30 05:50:12;;;;;;;29.10;14.68;;;;;;;5.99;55.38;101744.56;1731874;78;21084;-74
2021/03/30 05:52:47;;;;;;;29.12;14.83;;;;;;;6.01;55.84;101741.53;1680279;85;21370;-73
2021/03/30 05:55:30;;;;;;;30.77;14.50;;;;;;;6.03;55.01;101750.71;1705258;83;21134;-72
2021/03/30 05:58:01;;;;;;;28.27;14.28;;;;;;;6.03;54.53;101741.55;1705332;84;21150;-72
2021/03/30 06:00:36;;;;;;;44.23;16.00;;;;;;;6.02;54.84;101738.04;1705553;84;21106;-73
2021/03/30 06:03:08;;;;;;;32.38;13.35;;;;;;;6.05;54.64;101745.92;1705808;84;21142;-73
2021/03/30 06:05:37;;;;;;;31.40;13.83;;;;;;;6.09;55.80;101742.45;1716922;79;22379;-77
2021/03/30 06:08:05;;;;;;;32.70;13.58;;;;;;;6.16;56.45;101738.58;1751129;79;21167;-76
2021/03/30 06:10:35;;;;;;;27.98;13.78;;;;;;;6.17;56.97;101740.34;1768428;79;21168;-76
2021/03/30 06:13:04;;;;;;;32.80;14.03;;;;;;;6.15;57.01;101744.69;1759678;80;21140;-78
2021/03/30 06:15:35;;;;;;;29.87;13.62;;;;;;;6.19;58.76;101743.81;1763484;79;21127;-76
2021/03/30 06:18:19;;;;;;;31.57;16.30;;;;;;;6.26;57.92;101743.02;1750283;81;21147;-77
2021/03/30 06:20:49;;;;;;;32.33;15.15;;;;;;;6.28;55.41;101743.88;1755362;79;21578;-73
2021/03/30 06:23:28;;;;;;;38.92;15.05;;;;;;;6.34;57.58;101747.86;1783106;79;21483;-73
2021/03/30 06:25:56;;;;;;;33.55;15.85;;;;;;;6.43;56.47;101742.67;1785248;79;21108;-74
2021/03/30 06:28:29;;;;;;;37.33;15.35;;;;;;;6.50;55.79;101747.08;1773243;80;21692;-72
2021/03/30 06:33:57;;;;;;;32.15;14.33;;;;;;;6.67;54.93;101744.97;1820142;76;27665;-74
2021/03/30 06:36:31;;;;;;;33.38;15.53;;;;;;;6.62;55.65;101748.02;1744047;77;21225;-74
2021/03/30 06:39:03;;;;;;;33.20;14.95;;;;;;;6.61;57.72;101741.04;1686518;82;21404;-74
2021/03/30 06:41:47;;;;;;;32.50;15.05;;;;;;;6.65;57.86;101748.05;1680201;83;21217;-74
2021/03/30 06:44:28;;;;;;;37.03;16.30;;;;;;;6.70;54.32;101751.12;1730354;82;21220;-74
2021/03/30 06:47:12;;;;;;;41.83;17.80;;;;;;;6.76;53.99;101749.39;1718781;82;21185;-75
2021/03/30 06:50:01;;;;;;;37.60;15.65;;;;;;;6.82;54.45;101750.73;1725826;81;22239;-74
2021/03/30 06:52:34;;;;;;;32.63;17.02;;;;;;;6.93;54.95;101759.07;1749884;79;21278;-72
2021/03/30 06:55:14;;;;;;;36.23;17.35;;;;;;;7.02;54.07;101755.63;1752927;80;21184;-73
2021/03/30 06:57:49;;;;;;;36.23;17.48;;;;;;;7.13;56.46;101757.84;1755827;80;21189;-73
2021/03/30 07:00:33;;;;;;;37.17;17.17;;;;;;;7.24;55.31;101760.47;1774628;79;21157;-73
2021/03/30 07:03:10;;;;;;;34.65;16.57;;;;;;;7.39;54.87;101771.45;1753589;80;21204;-73
2021/03/30 07:05:40;;;;;;;38.88;17.02;;;;;;;7.50;51.58;101763.17;1752513;79;21390;-77
2021/03/30 07:08:20;;;;;;;39.88;18.65;;;;;;;7.64;52.47;101771.06;1731888;82;21452;-78
2021/03/30 07:10:52;;;;;;;38.80;16.97;;;;;;;7.84;51.90;101774.12;1730834;82;21226;-77
2021/03/30 07:13:22;;;;;;;40.75;17.35;;;;;;;7.94;52.26;101769.34;1712221;82;21290;-76
2021/03/30 07:15:58;;;;;;;45.75;18.80;;;;;;;8.10;52.65;101769.77;1735784;82;21209;-78
2021/03/30 07:18:47;;;;;;;36.95;17.25;;;;;;;8.30;50.95;101767.55;1735912;82;22525;-77
2021/03/30 07:21:22;;;;;;;35.60;16.27;;;;;;;8.48;51.61;101767.55;1731680;78;21247;-73
2021/03/30 07:23:59;;;;;;;33.18;17.70;;;;;;;8.80;48.00;101758.70;1727442;82;21118;-73
2021/03/30 07:26:37;;;;;;;27.30;14.65;;;;;;;9.11;46.06;101760.77;1720797;81;21728;-73
2021/03/30 07:29:10;;;;;;;32.88;14.07;;;;;;;9.49;43.34;101757.48;1683817;84;21603;-74
2021/03/30 07:31:52;;;;;;;24.55;12.65;;;;;;;9.83;41.60;101764.70;1684719;83;21998;-72
2021/03/30 07:34:34;;;;;;;28.55;13.72;;;;;;;10.32;41.50;101762.09;1711809;83;21136;-74
2021/03/30 07:37:05;;;;;;;22.17;12.40;;;;;;;11.07;42.61;101754.20;1723565;80;21157;-79
2021/03/30 07:39:38;;;;;;;19.17;9.23;;;;;;;12.18;39.26;101759.13;1727429;83;21679;-80
2021/03/30 07:42:06;;;;;;;18.57;9.45;;;;;;;13.09;33.39;101754.27;1769409;80;21197;-78
2021/03/30 07:44:34;;;;;;;13.43;7.40;;;;;;;13.67;32.66;101758.72;1779989;80;21363;-79
2021/03/30 07:47:04;;;;;;;13.48;7.58;;;;;;;14.28;29.02;101747.02;1772437;80;21213;-79
2021/03/30 07:49:32;;;;;;;15.10;6.83;;;;;;;14.69;26.19;101736.62;1760996;81;21278;-79
2021/03/30 07:52:30;;;;;;;22.40;7.97;;;;;;;14.92;26.04;101752.80;1788814;77;21248;-74
2021/03/30 07:55:18;;;;;;;16.02;7.70;;;;;;;15.11;26.26;101752.66;1790223;78;21165;-72
2021/03/30 07:58:10;;;;;;;16.42;7.00;;;;;;;15.54;25.67;101757.97;1774369;78;21816;-73
2021/03/30 08:00:44;;;;;;;18.85;6.85;;;;;;;16.02;25.94;101753.33;1783084;80;21204;-72
2021/03/30 08:03:19;;;;;;;13.08;7.00;;;;;;;16.25;24.84;101756.98;1775512;80;21188;-73
2021/03/30 08:06:12;;;;;;;12.25;5.70;;;;;;;16.55;24.39;101750.57;1783937;77;21238;-77
2021/03/30 08:08:59;;;;;;;9.13;5.17;;;;;;;16.77;22.11;101757.76;1755440;80;21218;-80
2021/03/30 08:11:56;;;;;;;11.90;5.85;;;;;;;16.69;21.45;101750.06;1737973;80;22305;-78
2021/03/30 08:14:36;;;;;;;15.72;6.55;;;;;;;16.68;22.31;101736.81;1710453;81;21201;-77
2021/03/30 08:17:13;;;;;;;8.85;6.20;;;;;;;16.92;22.25;101733.28;1711735;81;21261;-78
2021/03/30 08:19:58;;;;;;;9.05;5.42;;;;;;;16.98;21.02;101733.05;1697630;81;21198;-77
2021/03/30 08:22:29;;;;;;;14.10;5.47;;;;;;;16.71;20.75;101740.24;1807830;76;21153;-72
2021/03/30 08:24:57;;;;;;;11.03;5.00;;;;;;;16.57;21.29;101730.11;1840355;75;21252;-74
2021/03/30 08:27:36;;;;;;;8.40;5.42;;;;;;;16.48;20.82;101730.92;1880210;76;21155;-73
2021/03/30 08:30:28;;;;;;;19.50;6.85;;;;;;;16.40;21.42;101734.30;1877632;76;21172;-74
2021/03/30 08:32:59;;;;;;;9.65;5.78;;;;;;;16.65;21.66;101732.95;1879787;76;21215;-74
2021/03/30 08:35:37;;;;;;;13.48;4.97;;;;;;;16.83;21.05;101735.42;1870056;74;21211;-73
2021/03/30 08:38:05;;;;;;;12.60;6.12;;;;;;;16.89;21.87;101698.81;1784197;78;21325;-72
2021/03/30 08:40:41;;;;;;;10.03;6.05;;;;;;;17.33;22.20;101728.14;1726217;80;21201;-71
2021/03/30 08:43:19;;;;;;;18.67;6.37;;;;;;;17.70;20.98;101728.45;1746291;80;21189;-73
2021/03/30 08:46:11;;;;;;;16.37;6.22;;;;;;;17.67;20.29;101744.10;1745762;80;21208;-71
2021/03/30 08:48:48;;;;;;;12.03;4.80;;;;;;;17.59;20.44;101731.55;1733795;80;21195;-73
2021/03/30 08:51:20;;;;;;;12.73;5.92;;;;;;;17.68;20.51;101733.83;1753690;78;22423;-74
2021/03/30 08:53:48;;;;;;;12.25;6.50;;;;;;;17.55;20.94;101733.92;1771948;78;21228;-75
2021/03/30 08:56:28;;;;;;;13.15;6.67;;;;;;;17.92;20.57;101724.00;1764249;80;24806;-75
2021/03/30 08:58:58;;;;;;;14.43;6.05;;;;;;;18.41;21.62;101719.19;1718581;82;21165;-76
2021/03/30 09:01:26;;;;;;;15.70;6.87;;;;;;;18.76;20.19;101719.38;1713087;83;21213;-75
2021/03/30 09:03:57;;;;;;;14.43;5.80;;;;;;;18.60;19.26;101724.55;1688401;83;21206;-75
2021/03/30 09:06:35;;;;;;;12.05;5.08;;;;;;;18.58;19.64;101722.89;1719310;80;21240;-73
2021/03/30 09:09:19;;;;;;;8.45;5.53;;;;;;;18.88;19.28;101726.46;1740976;82;27451;-73
2021/03/30 09:11:50;;;;;;;10.50;6.33;;;;;;;18.65;18.70;101719.00;1712305;82;21655;-73
2021/03/30 09:14:21;;;;;;;14.80;6.25;;;;;;;18.45;20.47;101722.59;1739552;82;21242;-72
2021/03/30 09:16:52;;;;;;;17.75;6.95;;;;;;;18.58;19.66;101718.41;1742497;82;22026;-73
2021/03/30 09:19:31;;;;;;;11.35;6.72;;;;;;;18.83;20.36;101724.00;1741111;82;21202;-73
2021/03/30 09:22:25;;;;;;;12.25;6.58;;;;;;;18.84;18.97;101725.72;1748733;79;21156;-78
2021/03/30 09:25:13;;;;;;;16.23;6.95;;;;;;;18.84;20.25;101717.72;1730967;82;21174;-80
2021/03/30 09:27:40;;;;;;;16.77;6.35;;;;;;;18.84;20.25;101717.72;1734049;82;21186;-78
2021/03/30 09:30:16;;;;;;;15.38;6.62;;;;;;;18.85;19.33;101718.13;1781643;80;21919;-77
2021/03/30 09:32:46;;;;;;;11.65;7.15;;;;;;;18.82;19.38;101715.61;1793572;80;21212;-79
2021/03/30 09:35:20;;;;;;;16.02;8.53;;;;;;;18.38;19.45;101722.44;1752212;81;21275;-79
2021/03/30 09:38:00;;;;;;;16.12;7.85;;;;;;;18.14;20.52;101704.41;1779105;78;21223;-73
2021/03/30 09:40:34;;;;;;;13.98;6.25;;;;;;;18.13;20.52;101713.31;1784374;80;21838;-73
2021/03/30 09:43:11;;;;;;;20.12;7.05;;;;;;;18.16;21.03;101708.73;1787629;79;21206;-74
2021/03/30 09:45:49;;;;;;;14.28;7.15;;;;;;;18.28;20.55;101716.66;1788180;80;21206;-74
2021/03/30 09:48:18;;;;;;;12.82;7.15;;;;;;;18.07;20.78;101716.27;1788574;80;21236;-73
2021/03/30 09:50:53;;;;;;;12.63;7.30;;;;;;;17.84;21.33;101706.59;1787867;78;21279;31
2021/03/30 09:53:42;;;;;;;13.60;6.95;;;;;;;17.76;21.16;101699.76;1750813;81;21197;-78
2021/03/30 09:56:22;;;;;;;14.93;8.55;;;;;;;17.96;21.14;101702.06;1702511;82;21376;-79
2021/03/30 09:58:56;;;;;;;;;;;;;;;18.49;20.76;101694.82;1736069;81;21077;-79
2021/03/30 10:01:24;;;;;;;19.77;8.08;;;;;;;18.68;20.05;101693.98;1737145;82;20327;-78
2021/03/30 10:03:59;;;;;;;16.57;8.58;;;;;;;18.61;21.19;101701.39;1738590;81;21137;-79
2021/03/30 10:06:29;;;;;;;10.28;6.58;;;;;;;18.20;21.97;101692.14;1735215;79;21048;-73
2021/03/30 10:09:07;;;;;;;15.68;6.90;;;;;;;17.86;21.14;101689.59;1745687;80;21379;-74
2021/03/30 10:11:36;;;;;;;13.32;7.12;;;;;;;17.70;21.65;101689.34;1734757;81;21197;-75
2021/03/30 10:14:27;;;;;;;10.70;7.00;;;;;;;17.69;21.43;101684.08;1733767;82;21246;-73
2021/03/30 10:16:58;;;;;;;15.68;8.58;;;;;;;17.75;21.13;101672.69;1733809;82;21231;-73
2021/03/30 10:19:26;;;;;;;14.13;7.70;;;;;;;17.52;21.48;101695.44;1702141;81;21174;-73
2021/03/30 10:23:52;;;;;;;16.27;7.62;;;;;;;17.16;21.79;101676.02;1732040;79;22769;-74
2021/03/30 10:26:25;;;;;;;13.48;7.78;;;;;;;17.21;21.84;101680.72;1646531;87;21206;-78
2021/03/30 10:29:00;;;;;;;14.13;8.25;;;;;;;17.28;22.08;101682.20;1651665;86;21324;-78
2021/03/30 10:31:45;;;;;;;17.55;8.53;;;;;;;17.32;21.83;101674.50;1646924;86;21142;-75
2021/03/30 10:34:25;;;;;;;15.48;8.43;;;;;;;17.53;21.49;101670.52;1643342;86;21202;-75
2021/03/30 10:36:57;;;;;;;17.12;8.25;;;;;;;17.58;21.56;101663.23;1681152;82;21666;-77
2021/03/30 10:39:36;;;;;;;11.33;7.30;;;;;;;17.85;21.18;101663.86;1651304;86;21250;-74
2021/03/30 10:42:10;;;;;;;17.75;7.72;;;;;;;17.94;21.25;101654.61;1651837;86;21847;-76
2021/03/30 10:44:43;;;;;;;14.15;8.03;;;;;;;17.87;21.33;101661.14;1696088;84;21221;-73
2021/03/30 10:47:30;;;;;;;15.78;8.13;;;;;;;17.82;21.31;101656.87;1708102;84;21640;-73
2021/03/30 10:49:58;;;;;;;16.87;8.88;;;;;;;17.87;21.60;101653.16;1707641;84;21608;-75
2021/03/30 10:52:31;;;;;;;15.45;9.38;;;;;;;17.75;22.19;101647.38;1666607;82;21669;-77
2021/03/30 10:54:59;;;;;;;14.90;8.55;;;;;;;17.57;22.07;101645.50;1665969;85;21398;-77
2021/03/30 10:57:35;;;;;;;23.75;10.32;;;;;;;17.77;23.58;101639.33;1680894;84;21192;-82
2021/03/30 11:00:08;;;;;;;15.72;8.65;;;;;;;17.39;22.29;101644.02;1655056;85;21224;-82
2021/03/30 11:02:36;;;;;;;15.53;8.30;;;;;;;17.10;24.92;101647.01;1657798;85;21207;-77
2021/03/30 11:05:07;;;;;;;12.82;7.28;;;;;;;16.78;23.16;101642.45;1674505;85;21181;-80
2021/03/30 11:07:35;;;;;;;12.30;8.40;;;;;;;16.91;23.11;101637.53;1675359;81;21462;-77
2021/03/30 11:10:09;;;;;;;12.70;7.30;;;;;;;17.32;23.24;101638.55;1689019;84;21741;-75
2021/03/30 11:12:39;;;;;;;13.90;7.90;;;;;;;17.65;22.49;101638.06;1688899;84;21232;-77
2021/03/30 11:15:11;;;;;;;13.98;8.00;;;;;;;17.76;22.04;101636.25;1689699;84;21527;-79
2021/03/30 11:17:42;;;;;;;17.65;8.28;;;;;;;17.76;22.22;101630.48;1692562;84;21132;-77
2021/03/30 11:20:13;;;;;;;11.73;7.53;;;;;;;17.91;22.59;101635.62;1689774;83;21633;-78
2021/03/30 11:22:48;;;;;;;13.32;7.85;;;;;;;17.77;22.19;101637.52;1696430;81;21652;-77
2021/03/30 11:25:16;;;;;;;14.07;8.13;;;;;;;17.43;22.95;101637.23;1730732;82;21209;-78
2021/03/30 11:27:49;;;;;;;17.75;7.60;;;;;;;17.37;24.92;101632.56;1725684;82;21257;-78
2021/03/30 11:30:19;;;;;;;14.23;8.58;;;;;;;17.09;23.46;101634.61;1765044;80;21213;-78
2021/03/30 11:32:53;;;;;;;13.55;8.35;;;;;;;16.85;23.27;101624.02;1764373;80;22111;-79
2021/03/30 11:35:23;;;;;;;18.12;9.33;;;;;;;16.67;23.52;101624.23;1772445;80;21222;-79
2021/03/30 11:37:57;;;;;;;20.68;9.63;;;;;;;16.45;24.50;101612.68;1724471;81;21188;-77
2021/03/30 11:40:25;;;;;;;16.73;8.68;;;;;;;16.37;23.68;101626.27;1696669;82;21214;-77
2021/03/30 11:42:53;;;;;;;27.32;9.45;;;;;;;16.20;23.91;101614.09;1690447;82;21185;-77
2021/03/30 11:45:23;;;;;;;14.87;8.25;;;;;;;16.03;24.32;101616.02;1687502;82;22130;-77
2021/03/30 11:47:51;;;;;;;15.58;8.38;;;;;;;15.80;24.52;101611.52;1632177;87;21228;-77
2021/03/30 11:50:20;;;;;;;13.62;8.48;;;;;;;15.94;24.71;101601.27;1632178;87;21233;-76
2021/03/30 11:52:48;;;;;;;14.95;8.58;;;;;;;16.19;25.50;101609.20;1627674;84;21208;-76